sensor_id;sensor_type;location;lat;lon;timestamp;temperature;humidity
34542;DHT22;20784;51.332;12.410;2023-03-11T00:00:15;2.80;99.90
34542;DHT22;20784;51.332;12.410;2023-03-11T00:02:45;2.70;99.90
34542;DHT22;20784;51.332;12.410;2023-03-11T00:05:17;2.60;99.90
34542;DHT22;20784;51.332;12.410;2023-03-11T00:07:43;2.70;99.90
34542;DHT22;20784;51.332;12.410;2023-03-11T00:10:20;2.60;99.90
34542;DHT22;20784;51.332;12.410;2023-03-11T00:12:49;2.70;99.90
34542;DHT22;20784;51.332;12.410;2023-03-11T00:15:14;2.60;99.90
34542;DHT22;20784;51.332;12.410;2023-03-11T00:17:43;2.60;99.90
34542;DHT22;20784;51.332;12.410;2023-03-11T00:20:22;2.60;99.90
34542;DHT22;20784;51.332;12.410;2023-03-11T00:22:49;2.50;99.90
34542;DHT22;20784;51.332;12.410;2023-03-11T00:25:15;2.50;99.90
34542;DHT22;20784;51.332;12.410;2023-03-11T00:27:41;2.40;99.90
34542;DHT22;20784;51.332;12.410;2023-03-11T00:30:08;2.30;99.90
34542;DHT22;20784;51.332;12.410;2023-03-11T00:32:34;2.30;99.90
34542;DHT22;20784;51.332;12.410;2023-03-11T00:35:00;2.30;99.90
34542;DHT22;20784;51.332;12.410;2023-03-11T00:37:29;2.30;99.90
34542;DHT22;20784;51.332;12.410;2023-03-11T00:39:54;2.30;99.90
34542;DHT22;20784;51.332;12.410;2023-03-11T00:42:20;2.30;99.90
34542;DHT22;20784;51.332;12.410;2023-03-11T00:44:45;2.30;99.90
34542;DHT22;20784;51.332;12.410;2023-03-11T00:47:11;2.20;99.90
34542;DHT22;20784;51.332;12.410;2023-03-11T00:49:38;2.20;99.90
34542;DHT22;20784;51.332;12.410;2023-03-11T00:52:04;2.20;99.90
34542;DHT22;20784;51.332;12.410;2023-03-11T00:54:30;2.20;99.90
34542;DHT22;20784;51.332;12.410;2023-03-11T00:56:55;2.20;99.90
34542;DHT22;20784;51.332;12.410;2023-03-11T00:59:21;2.20;99.90
34542;DHT22;20784;51.332;12.410;2023-03-11T01:01:47;2.20;99.90
34542;DHT22;20784;51.332;12.410;2023-03-11T01:04:13;2.20;99.90
34542;DHT22;20784;51.332;12.410;2023-03-11T01:06:38;2.20;99.90
34542;DHT22;20784;51.332;12.410;2023-03-11T01:09:04;2.10;99.90
34542;DHT22;20784;51.332;12.410;2023-03-11T01:11:30;2.10;99.90
34542;DHT22;20784;51.332;12.410;2023-03-11T01:13:55;2.10;99.90
34542;DHT22;20784;51.332;12.410;2023-03-11T01:16:28;2.00;99.90
34542;DHT22;20784;51.332;12.410;2023-03-11T01:18:54;2.00;99.90
34542;DHT22;20784;51.332;12.410;2023-03-11T01:21:19;2.00;99.90
34542;DHT22;20784;51.332;12.410;2023-03-11T01:23:45;2.10;99.90
34542;DHT22;20784;51.332;12.410;2023-03-11T01:26:11;2.10;99.90
34542;DHT22;20784;51.332;12.410;2023-03-11T01:28:36;2.10;99.90
34542;DHT22;20784;51.332;12.410;2023-03-11T01:31:02;2.10;99.90
34542;DHT22;20784;51.332;12.410;2023-03-11T01:33:27;2.20;99.90
34542;DHT22;20784;51.332;12.410;2023-03-11T01:35:53;2.10;99.90
34542;DHT22;20784;51.332;12.410;2023-03-11T01:38:19;2.20;99.90
34542;DHT22;20784;51.332;12.410;2023-03-11T01:40:47;2.20;99.90
34542;DHT22;20784;51.332;12.410;2023-03-11T01:43:38;2.10;99.90
34542;DHT22;20784;51.332;12.410;2023-03-11T01:48:58;2.10;99.90
34542;DHT22;20784;51.332;12.410;2023-03-11T01:51:29;1.90;99.90
34542;DHT22;20784;51.332;12.410;2023-03-11T01:53:58;1.90;99.90
34542;DHT22;20784;51.332;12.410;2023-03-11T01:56:25;1.90;99.90
34542;DHT22;20784;51.332;12.410;2023-03-11T01:58:52;1.90;99.90
34542;DHT22;20784;51.332;12.410;2023-03-11T02:01:19;1.80;99.90
34542;DHT22;20784;51.332;12.410;2023-03-11T02:03:51;1.90;99.90
34542;DHT22;20784;51.332;12.410;2023-03-11T02:06:21;1.90;99.90
34542;DHT22;20784;51.332;12.410;2023-03-11T02:08:47;1.90;99.90
34542;DHT22;20784;51.332;12.410;2023-03-11T02:11:20;1.80;99.90
34542;DHT22;20784;51.332;12.410;2023-03-11T02:13:47;1.80;99.90
34542;DHT22;20784;51.332;12.410;2023-03-11T02:16:13;1.80;99.90
34542;DHT22;20784;51.332;12.410;2023-03-11T02:18:43;1.80;99.90
34542;DHT22;20784;51.332;12.410;2023-03-11T02:26:14;1.70;99.90
34542;DHT22;20784;51.332;12.410;2023-03-11T02:28:41;1.70;99.90
34542;DHT22;20784;51.332;12.410;2023-03-11T02:31:08;1.60;99.90
34542;DHT22;20784;51.332;12.410;2023-03-11T02:33:35;1.60;99.90
34542;DHT22;20784;51.332;12.410;2023-03-11T02:36:01;1.70;99.90
34542;DHT22;20784;51.332;12.410;2023-03-11T02:38:26;1.70;99.90
34542;DHT22;20784;51.332;12.410;2023-03-11T02:40:58;1.70;99.90
34542;DHT22;20784;51.332;12.410;2023-03-11T02:43:33;1.70;99.90
34542;DHT22;20784;51.332;12.410;2023-03-11T02:46:06;1.70;99.90
34542;DHT22;20784;51.332;12.410;2023-03-11T02:48:34;1.80;99.90
34542;DHT22;20784;51.332;12.410;2023-03-11T02:51:01;1.80;99.90
34542;DHT22;20784;51.332;12.410;2023-03-11T02:53:29;1.80;99.90
34542;DHT22;20784;51.332;12.410;2023-03-11T02:55:54;1.70;99.90
34542;DHT22;20784;51.332;12.410;2023-03-11T02:58:20;1.70;99.90
34542;DHT22;20784;51.332;12.410;2023-03-11T03:00:46;1.70;99.90
34542;DHT22;20784;51.332;12.410;2023-03-11T03:03:11;1.70;99.90
34542;DHT22;20784;51.332;12.410;2023-03-11T03:05:37;1.60;99.90
34542;DHT22;20784;51.332;12.410;2023-03-11T03:08:03;1.70;99.90
34542;DHT22;20784;51.332;12.410;2023-03-11T03:10:29;1.60;99.90
34542;DHT22;20784;51.332;12.410;2023-03-11T03:12:54;1.70;99.90
34542;DHT22;20784;51.332;12.410;2023-03-11T03:15:23;1.80;99.90
34542;DHT22;20784;51.332;12.410;2023-03-11T03:17:49;1.80;99.90
34542;DHT22;20784;51.332;12.410;2023-03-11T03:20:16;1.80;99.90
34542;DHT22;20784;51.332;12.410;2023-03-11T03:22:44;1.80;99.90
34542;DHT22;20784;51.332;12.410;2023-03-11T03:25:10;1.80;99.90
34542;DHT22;20784;51.332;12.410;2023-03-11T03:27:36;1.80;99.90
34542;DHT22;20784;51.332;12.410;2023-03-11T03:30:03;1.70;99.90
34542;DHT22;20784;51.332;12.410;2023-03-11T03:32:29;1.70;99.90
34542;DHT22;20784;51.332;12.410;2023-03-11T03:34:55;1.80;99.90
34542;DHT22;20784;51.332;12.410;2023-03-11T03:37:24;1.80;99.90
34542;DHT22;20784;51.332;12.410;2023-03-11T03:39:53;1.80;99.90
34542;DHT22;20784;51.332;12.410;2023-03-11T03:42:19;1.80;99.90
34542;DHT22;20784;51.332;12.410;2023-03-11T03:44:45;1.70;99.90
34542;DHT22;20784;51.332;12.410;2023-03-11T03:47:10;1.60;99.90
34542;DHT22;20784;51.332;12.410;2023-03-11T03:49:36;1.60;99.90
34542;DHT22;20784;51.332;12.410;2023-03-11T03:52:04;1.70;99.90
34542;DHT22;20784;51.332;12.410;2023-03-11T03:54:30;1.80;99.90
34542;DHT22;20784;51.332;12.410;2023-03-11T03:56:56;1.80;99.90
34542;DHT22;20784;51.332;12.410;2023-03-11T03:59:22;1.70;99.90
34542;DHT22;20784;51.332;12.410;2023-03-11T04:01:48;1.70;99.90
34542;DHT22;20784;51.332;12.410;2023-03-11T04:04:16;1.80;99.90
34542;DHT22;20784;51.332;12.410;2023-03-11T04:06:42;1.80;99.90
34542;DHT22;20784;51.332;12.410;2023-03-11T04:09:10;1.70;99.90
34542;DHT22;20784;51.332;12.410;2023-03-11T04:11:36;1.80;99.90
34542;DHT22;20784;51.332;12.410;2023-03-11T04:14:02;1.80;99.90
34542;DHT22;20784;51.332;12.410;2023-03-11T04:16:27;1.80;99.90
34542;DHT22;20784;51.332;12.410;2023-03-11T04:18:53;1.80;99.90
34542;DHT22;20784;51.332;12.410;2023-03-11T04:21:19;1.80;99.90
34542;DHT22;20784;51.332;12.410;2023-03-11T04:23:44;1.80;99.90
34542;DHT22;20784;51.332;12.410;2023-03-11T04:26:10;1.70;99.90
34542;DHT22;20784;51.332;12.410;2023-03-11T04:28:36;1.80;99.90
34542;DHT22;20784;51.332;12.410;2023-03-11T04:31:01;1.80;99.90
34542;DHT22;20784;51.332;12.410;2023-03-11T04:33:27;1.80;99.90
34542;DHT22;20784;51.332;12.410;2023-03-11T04:35:52;1.80;99.90
34542;DHT22;20784;51.332;12.410;2023-03-11T04:38:18;1.80;99.90
34542;DHT22;20784;51.332;12.410;2023-03-11T04:40:44;1.80;99.90
34542;DHT22;20784;51.332;12.410;2023-03-11T04:43:09;1.70;99.90
34542;DHT22;20784;51.332;12.410;2023-03-11T04:45:40;1.80;99.90
34542;DHT22;20784;51.332;12.410;2023-03-11T04:48:09;1.70;99.90
34542;DHT22;20784;51.332;12.410;2023-03-11T04:50:34;1.80;99.90
34542;DHT22;20784;51.332;12.410;2023-03-11T04:53:02;1.90;99.90
34542;DHT22;20784;51.332;12.410;2023-03-11T04:55:28;1.80;99.90
34542;DHT22;20784;51.332;12.410;2023-03-11T04:57:56;1.80;99.90
34542;DHT22;20784;51.332;12.410;2023-03-11T05:00:22;1.90;99.90
34542;DHT22;20784;51.332;12.410;2023-03-11T05:02:49;1.90;99.90
34542;DHT22;20784;51.332;12.410;2023-03-11T05:05:15;1.80;99.90
34542;DHT22;20784;51.332;12.410;2023-03-11T05:07:41;1.80;99.90
34542;DHT22;20784;51.332;12.410;2023-03-11T05:10:07;1.90;99.90
34542;DHT22;20784;51.332;12.410;2023-03-11T05:12:38;1.80;99.90
34542;DHT22;20784;51.332;12.410;2023-03-11T05:15:06;1.80;99.90
34542;DHT22;20784;51.332;12.410;2023-03-11T05:17:32;1.80;99.90
34542;DHT22;20784;51.332;12.410;2023-03-11T05:19:57;1.90;99.90
34542;DHT22;20784;51.332;12.410;2023-03-11T05:22:23;1.80;99.90
34542;DHT22;20784;51.332;12.410;2023-03-11T05:24:49;1.90;99.90
34542;DHT22;20784;51.332;12.410;2023-03-11T05:27:15;2.00;99.90
34542;DHT22;20784;51.332;12.410;2023-03-11T05:29:45;1.90;99.90
34542;DHT22;20784;51.332;12.410;2023-03-11T05:32:12;1.90;99.90
34542;DHT22;20784;51.332;12.410;2023-03-11T05:34:38;1.80;99.90
34542;DHT22;20784;51.332;12.410;2023-03-11T05:37:04;1.90;99.90
34542;DHT22;20784;51.332;12.410;2023-03-11T05:39:32;1.90;99.90
34542;DHT22;20784;51.332;12.410;2023-03-11T05:42:07;2.00;99.90
34542;DHT22;20784;51.332;12.410;2023-03-11T05:44:33;1.90;99.90
34542;DHT22;20784;51.332;12.410;2023-03-11T05:47:01;1.90;99.90
34542;DHT22;20784;51.332;12.410;2023-03-11T05:49:29;1.90;99.90
34542;DHT22;20784;51.332;12.410;2023-03-11T05:51:55;1.90;99.90
34542;DHT22;20784;51.332;12.410;2023-03-11T05:54:23;1.90;99.90
34542;DHT22;20784;51.332;12.410;2023-03-11T05:56:48;1.80;99.90
34542;DHT22;20784;51.332;12.410;2023-03-11T05:59:15;1.90;99.90
34542;DHT22;20784;51.332;12.410;2023-03-11T06:01:42;1.90;99.90
34542;DHT22;20784;51.332;12.410;2023-03-11T06:04:09;1.80;99.90
34542;DHT22;20784;51.332;12.410;2023-03-11T06:06:38;1.80;99.90
34542;DHT22;20784;51.332;12.410;2023-03-11T06:09:05;1.80;99.90
34542;DHT22;20784;51.332;12.410;2023-03-11T06:11:33;1.80;99.90
34542;DHT22;20784;51.332;12.410;2023-03-11T06:14:02;1.90;99.90
34542;DHT22;20784;51.332;12.410;2023-03-11T06:16:30;1.90;99.90
34542;DHT22;20784;51.332;12.410;2023-03-11T06:18:56;1.90;99.90
34542;DHT22;20784;51.332;12.410;2023-03-11T06:21:24;2.00;99.90
34542;DHT22;20784;51.332;12.410;2023-03-11T06:23:51;2.00;99.90
34542;DHT22;20784;51.332;12.410;2023-03-11T06:26:19;2.00;99.90
34542;DHT22;20784;51.332;12.410;2023-03-11T06:28:49;1.90;99.90
34542;DHT22;20784;51.332;12.410;2023-03-11T06:31:26;2.00;99.90
34542;DHT22;20784;51.332;12.410;2023-03-11T06:33:52;2.00;99.90
34542;DHT22;20784;51.332;12.410;2023-03-11T06:36:22;2.10;99.90
34542;DHT22;20784;51.332;12.410;2023-03-11T06:38:50;2.10;99.90
34542;DHT22;20784;51.332;12.410;2023-03-11T06:41:16;2.10;99.90
34542;DHT22;20784;51.332;12.410;2023-03-11T06:43:41;2.10;99.90
34542;DHT22;20784;51.332;12.410;2023-03-11T06:46:21;2.10;99.90
34542;DHT22;20784;51.332;12.410;2023-03-11T06:48:56;2.10;99.90
34542;DHT22;20784;51.332;12.410;2023-03-11T06:51:24;2.20;99.90
34542;DHT22;20784;51.332;12.410;2023-03-11T06:53:51;2.30;99.90
34542;DHT22;20784;51.332;12.410;2023-03-11T06:56:24;2.10;99.90
34542;DHT22;20784;51.332;12.410;2023-03-11T06:58:55;2.20;99.90
34542;DHT22;20784;51.332;12.410;2023-03-11T07:01:24;2.20;99.90
34542;DHT22;20784;51.332;12.410;2023-03-11T07:03:51;2.20;99.90
34542;DHT22;20784;51.332;12.410;2023-03-11T07:06:22;2.10;99.90
34542;DHT22;20784;51.332;12.410;2023-03-11T07:08:48;2.20;99.90
34542;DHT22;20784;51.332;12.410;2023-03-11T07:11:24;2.10;99.90
34542;DHT22;20784;51.332;12.410;2023-03-11T07:13:51;2.10;99.90
34542;DHT22;20784;51.332;12.410;2023-03-11T07:16:20;2.20;99.90
34542;DHT22;20784;51.332;12.410;2023-03-11T07:18:48;2.20;99.90
34542;DHT22;20784;51.332;12.410;2023-03-11T07:21:25;2.20;99.90
34542;DHT22;20784;51.332;12.410;2023-03-11T07:24:00;2.20;99.90
34542;DHT22;20784;51.332;12.410;2023-03-11T07:26:31;2.10;99.90
34542;DHT22;20784;51.332;12.410;2023-03-11T07:28:57;2.30;99.90
34542;DHT22;20784;51.332;12.410;2023-03-11T07:31:30;2.30;99.90
34542;DHT22;20784;51.332;12.410;2023-03-11T07:33:59;2.30;99.90
34542;DHT22;20784;51.332;12.410;2023-03-11T07:36:25;2.20;99.90
34542;DHT22;20784;51.332;12.410;2023-03-11T07:38:58;2.30;99.90
34542;DHT22;20784;51.332;12.410;2023-03-11T07:41:27;2.30;99.90
34542;DHT22;20784;51.332;12.410;2023-03-11T07:43:55;2.40;99.90
34542;DHT22;20784;51.332;12.410;2023-03-11T07:46:36;2.30;99.90
34542;DHT22;20784;51.332;12.410;2023-03-11T07:49:10;2.30;99.90
34542;DHT22;20784;51.332;12.410;2023-03-11T07:51:36;2.30;99.90
34542;DHT22;20784;51.332;12.410;2023-03-11T07:54:06;2.40;99.90
34542;DHT22;20784;51.332;12.410;2023-03-11T07:56:33;2.30;99.90
34542;DHT22;20784;51.332;12.410;2023-03-11T07:59:02;2.30;99.90
34542;DHT22;20784;51.332;12.410;2023-03-11T08:01:32;2.30;99.90
34542;DHT22;20784;51.332;12.410;2023-03-11T08:04:08;2.40;99.90
34542;DHT22;20784;51.332;12.410;2023-03-11T08:06:35;2.30;99.90
34542;DHT22;20784;51.332;12.410;2023-03-11T08:09:06;2.50;99.90
34542;DHT22;20784;51.332;12.410;2023-03-11T08:11:32;2.50;99.90
34542;DHT22;20784;51.332;12.410;2023-03-11T08:13:58;2.50;99.90
34542;DHT22;20784;51.332;12.410;2023-03-11T08:16:25;2.50;99.90
34542;DHT22;20784;51.332;12.410;2023-03-11T08:18:53;2.50;99.90
34542;DHT22;20784;51.332;12.410;2023-03-11T08:21:22;2.50;99.90
34542;DHT22;20784;51.332;12.410;2023-03-11T08:23:59;2.60;99.90
34542;DHT22;20784;51.332;12.410;2023-03-11T08:26:25;2.70;99.90
34542;DHT22;20784;51.332;12.410;2023-03-11T08:28:51;2.60;99.90
34542;DHT22;20784;51.332;12.410;2023-03-11T08:31:24;2.60;99.90
34542;DHT22;20784;51.332;12.410;2023-03-11T08:33:52;2.70;99.90
34542;DHT22;20784;51.332;12.410;2023-03-11T08:36:19;2.70;99.90
34542;DHT22;20784;51.332;12.410;2023-03-11T08:38:45;2.60;99.90
34542;DHT22;20784;51.332;12.410;2023-03-11T08:41:11;2.60;99.90
34542;DHT22;20784;51.332;12.410;2023-03-11T08:43:40;2.50;99.90
34542;DHT22;20784;51.332;12.410;2023-03-11T08:46:06;2.50;99.90
34542;DHT22;20784;51.332;12.410;2023-03-11T08:48:35;2.60;99.90
34542;DHT22;20784;51.332;12.410;2023-03-11T08:51:11;2.60;99.90
34542;DHT22;20784;51.332;12.410;2023-03-11T08:53:40;2.60;99.90
34542;DHT22;20784;51.332;12.410;2023-03-11T08:56:06;2.50;99.90
34542;DHT22;20784;51.332;12.410;2023-03-11T08:58:35;2.50;99.90
34542;DHT22;20784;51.332;12.410;2023-03-11T09:01:03;2.50;99.90
34542;DHT22;20784;51.332;12.410;2023-03-11T09:03:33;2.50;99.90
34542;DHT22;20784;51.332;12.410;2023-03-11T09:06:05;2.80;99.90
34542;DHT22;20784;51.332;12.410;2023-03-11T09:08:31;2.70;99.90
34542;DHT22;20784;51.332;12.410;2023-03-11T09:11:00;2.80;99.90
34542;DHT22;20784;51.332;12.410;2023-03-11T09:13:26;2.80;99.90
34542;DHT22;20784;51.332;12.410;2023-03-11T09:15:52;2.70;99.90
34542;DHT22;20784;51.332;12.410;2023-03-11T09:18:19;2.70;99.90
34542;DHT22;20784;51.332;12.410;2023-03-11T09:20:45;2.60;99.90
34542;DHT22;20784;51.332;12.410;2023-03-11T09:23:20;2.70;99.90
34542;DHT22;20784;51.332;12.410;2023-03-11T09:25:48;2.80;99.90
34542;DHT22;20784;51.332;12.410;2023-03-11T09:28:24;2.80;99.90
34542;DHT22;20784;51.332;12.410;2023-03-11T09:30:52;2.90;99.90
34542;DHT22;20784;51.332;12.410;2023-03-11T09:33:21;2.90;99.90
34542;DHT22;20784;51.332;12.410;2023-03-11T09:35:48;3.00;99.90
34542;DHT22;20784;51.332;12.410;2023-03-11T09:38:14;3.10;99.90
34542;DHT22;20784;51.332;12.410;2023-03-11T09:41:01;3.30;99.90
34542;DHT22;20784;51.332;12.410;2023-03-11T09:49:34;3.50;99.90
34542;DHT22;20784;51.332;12.410;2023-03-11T09:52:11;3.80;99.90
34542;DHT22;20784;51.332;12.410;2023-03-11T09:54:41;3.70;99.90
34542;DHT22;20784;51.332;12.410;2023-03-11T09:57:13;3.70;99.90
34542;DHT22;20784;51.332;12.410;2023-03-11T09:59:40;3.80;99.90
34542;DHT22;20784;51.332;12.410;2023-03-11T10:02:14;3.80;99.90
34542;DHT22;20784;51.332;12.410;2023-03-11T10:04:55;3.70;99.90
34542;DHT22;20784;51.332;12.410;2023-03-11T10:07:26;3.60;99.90
34542;DHT22;20784;51.332;12.410;2023-03-11T10:09:56;3.50;99.90
34542;DHT22;20784;51.332;12.410;2023-03-11T10:15:35;4.00;99.90
34542;DHT22;20784;51.332;12.410;2023-03-11T10:18:35;4.10;99.90
34542;DHT22;20784;51.332;12.410;2023-03-11T10:26:40;4.20;99.90
34542;DHT22;20784;51.332;12.410;2023-03-11T10:29:22;4.00;99.90
34542;DHT22;20784;51.332;12.410;2023-03-11T10:32:06;4.00;99.90
34542;DHT22;20784;51.332;12.410;2023-03-11T10:34:44;4.10;99.90
34542;DHT22;20784;51.332;12.410;2023-03-11T10:37:41;4.20;99.90
34542;DHT22;20784;51.332;12.410;2023-03-11T10:40:29;4.30;99.90
34542;DHT22;20784;51.332;12.410;2023-03-11T10:43:00;4.60;99.90
34542;DHT22;20784;51.332;12.410;2023-03-11T10:45:37;4.60;99.90
34542;DHT22;20784;51.332;12.410;2023-03-11T10:48:15;4.60;99.90
34542;DHT22;20784;51.332;12.410;2023-03-11T10:53:24;4.40;99.90
34542;DHT22;20784;51.332;12.410;2023-03-11T10:56:01;4.20;99.90
34542;DHT22;20784;51.332;12.410;2023-03-11T10:58:31;4.10;99.90
34542;DHT22;20784;51.332;12.410;2023-03-11T11:01:19;4.10;99.90
34542;DHT22;20784;51.332;12.410;2023-03-11T11:03:53;4.10;99.90
34542;DHT22;20784;51.332;12.410;2023-03-11T11:06:40;4.00;99.90
34542;DHT22;20784;51.332;12.410;2023-03-11T11:09:43;4.00;99.90
34542;DHT22;20784;51.332;12.410;2023-03-11T11:12:13;4.10;99.90
34542;DHT22;20784;51.332;12.410;2023-03-11T11:14:59;4.10;99.90
34542;DHT22;20784;51.332;12.410;2023-03-11T11:17:29;4.10;99.90
34542;DHT22;20784;51.332;12.410;2023-03-11T11:19:56;4.00;99.90
34542;DHT22;20784;51.332;12.410;2023-03-11T11:22:54;4.10;99.90
34542;DHT22;20784;51.332;12.410;2023-03-11T11:25:56;4.10;99.90
34542;DHT22;20784;51.332;12.410;2023-03-11T11:28:32;4.00;99.90
34542;DHT22;20784;51.332;12.410;2023-03-11T11:31:05;4.00;99.90
34542;DHT22;20784;51.332;12.410;2023-03-11T11:33:51;4.00;99.90
34542;DHT22;20784;51.332;12.410;2023-03-11T11:41:00;4.40;99.90
34542;DHT22;20784;51.332;12.410;2023-03-11T11:44:14;4.00;99.90
34542;DHT22;20784;51.332;12.410;2023-03-11T11:50:00;4.10;99.90
34542;DHT22;20784;51.332;12.410;2023-03-11T11:53:01;4.10;99.90
34542;DHT22;20784;51.332;12.410;2023-03-11T11:55:40;4.30;99.90
34542;DHT22;20784;51.332;12.410;2023-03-11T11:58:28;4.40;99.90
34542;DHT22;20784;51.332;12.410;2023-03-11T12:01:18;4.40;99.90
34542;DHT22;20784;51.332;12.410;2023-03-11T12:04:05;4.50;99.90
34542;DHT22;20784;51.332;12.410;2023-03-11T12:06:48;4.60;99.90
34542;DHT22;20784;51.332;12.410;2023-03-11T12:12:39;4.20;99.90
34542;DHT22;20784;51.332;12.410;2023-03-11T12:15:18;4.00;99.90
34542;DHT22;20784;51.332;12.410;2023-03-11T12:17:46;4.00;99.90
34542;DHT22;20784;51.332;12.410;2023-03-11T12:20:34;4.10;99.90
34542;DHT22;20784;51.332;12.410;2023-03-11T12:23:19;4.00;99.90
34542;DHT22;20784;51.332;12.410;2023-03-11T12:31:02;4.60;99.90
34542;DHT22;20784;51.332;12.410;2023-03-11T12:33:36;4.70;99.90
34542;DHT22;20784;51.332;12.410;2023-03-11T12:36:04;4.80;99.90
34542;DHT22;20784;51.332;12.410;2023-03-11T12:38:33;4.70;99.90
34542;DHT22;20784;51.332;12.410;2023-03-11T12:41:05;4.70;99.90
34542;DHT22;20784;51.332;12.410;2023-03-11T12:48:48;4.60;99.90
34542;DHT22;20784;51.332;12.410;2023-03-11T12:51:39;4.50;99.90
34542;DHT22;20784;51.332;12.410;2023-03-11T12:54:28;4.30;99.90
34542;DHT22;20784;51.332;12.410;2023-03-11T13:03:12;4.30;99.90
34542;DHT22;20784;51.332;12.410;2023-03-11T13:08:55;4.40;99.90
34542;DHT22;20784;51.332;12.410;2023-03-11T13:14:22;4.20;99.90
34542;DHT22;20784;51.332;12.410;2023-03-11T13:17:17;4.30;99.90
34542;DHT22;20784;51.332;12.410;2023-03-11T13:20:00;4.40;99.90
34542;DHT22;20784;51.332;12.410;2023-03-11T13:26:12;4.40;99.90
34542;DHT22;20784;51.332;12.410;2023-03-11T13:40:36;4.40;99.90
34542;DHT22;20784;51.332;12.410;2023-03-11T13:43:20;4.40;99.90
34542;DHT22;20784;51.332;12.410;2023-03-11T13:46:37;4.40;99.90
34542;DHT22;20784;51.332;12.410;2023-03-11T13:48:45;4.40;99.90
34542;DHT22;20784;51.332;12.410;2023-03-11T13:53:47;4.50;99.90
34542;DHT22;20784;51.332;12.410;2023-03-11T13:56:30;4.60;99.90
34542;DHT22;20784;51.332;12.410;2023-03-11T13:59:31;4.80;99.90
34542;DHT22;20784;51.332;12.410;2023-03-11T14:04:36;4.90;99.90
34542;DHT22;20784;51.332;12.410;2023-03-11T14:07:32;5.10;99.90
34542;DHT22;20784;51.332;12.410;2023-03-11T14:10:21;5.20;99.90
34542;DHT22;20784;51.332;12.410;2023-03-11T14:12:50;5.20;99.90
34542;DHT22;20784;51.332;12.410;2023-03-11T14:15:51;5.20;99.90
34542;DHT22;20784;51.332;12.410;2023-03-11T14:18:39;5.30;99.90
34542;DHT22;20784;51.332;12.410;2023-03-11T14:24:02;5.20;99.90
34542;DHT22;20784;51.332;12.410;2023-03-11T14:26:33;5.20;99.90
34542;DHT22;20784;51.332;12.410;2023-03-11T14:29:08;5.30;99.90
34542;DHT22;20784;51.332;12.410;2023-03-11T14:31:45;5.30;99.90
34542;DHT22;20784;51.332;12.410;2023-03-11T14:34:19;5.30;99.90
34542;DHT22;20784;51.332;12.410;2023-03-11T14:36:47;5.10;99.90
34542;DHT22;20784;51.332;12.410;2023-03-11T14:42:30;5.20;99.90
34542;DHT22;20784;51.332;12.410;2023-03-11T14:45:14;5.20;99.90
34542;DHT22;20784;51.332;12.410;2023-03-11T14:47:55;5.50;99.90
34542;DHT22;20784;51.332;12.410;2023-03-11T14:50:26;5.60;99.90
34542;DHT22;20784;51.332;12.410;2023-03-11T14:58:37;5.60;99.90
34542;DHT22;20784;51.332;12.410;2023-03-11T15:04:05;5.90;99.90
34542;DHT22;20784;51.332;12.410;2023-03-11T15:06:34;5.90;99.90
34542;DHT22;20784;51.332;12.410;2023-03-11T15:09:22;5.90;99.90
34542;DHT22;20784;51.332;12.410;2023-03-11T15:11:53;6.00;99.90
34542;DHT22;20784;51.332;12.410;2023-03-11T15:14:25;6.00;99.90
34542;DHT22;20784;51.332;12.410;2023-03-11T15:16:51;5.70;99.90
34542;DHT22;20784;51.332;12.410;2023-03-11T15:21:53;5.60;99.90
34542;DHT22;20784;51.332;12.410;2023-03-11T15:24:27;5.40;99.90
34542;DHT22;20784;51.332;12.410;2023-03-11T15:27:02;5.50;99.90
34542;DHT22;20784;51.332;12.410;2023-03-11T15:29:29;5.50;99.90
34542;DHT22;20784;51.332;12.410;2023-03-11T15:31:55;5.40;99.90
34542;DHT22;20784;51.332;12.410;2023-03-11T15:40:26;5.10;99.90
34542;DHT22;20784;51.332;12.410;2023-03-11T15:45:39;5.00;99.90
34542;DHT22;20784;51.332;12.410;2023-03-11T15:48:05;5.00;99.90
34542;DHT22;20784;51.332;12.410;2023-03-11T15:50:32;5.00;99.90
34542;DHT22;20784;51.332;12.410;2023-03-11T15:52:58;5.10;99.90
34542;DHT22;20784;51.332;12.410;2023-03-11T15:55:25;5.00;99.90
34542;DHT22;20784;51.332;12.410;2023-03-11T15:58:04;5.00;99.90
34542;DHT22;20784;51.332;12.410;2023-03-11T16:00:30;5.00;99.90
34542;DHT22;20784;51.332;12.410;2023-03-11T16:02:56;4.80;99.90
34542;DHT22;20784;51.332;12.410;2023-03-11T16:05:26;4.80;99.90
34542;DHT22;20784;51.332;12.410;2023-03-11T16:07:52;4.80;99.90
34542;DHT22;20784;51.332;12.410;2023-03-11T16:10:23;4.80;99.90
34542;DHT22;20784;51.332;12.410;2023-03-11T16:12:50;4.80;99.90
34542;DHT22;20784;51.332;12.410;2023-03-11T16:15:23;4.70;99.90
34542;DHT22;20784;51.332;12.410;2023-03-11T16:17:52;4.60;99.90
34542;DHT22;20784;51.332;12.410;2023-03-11T16:20:21;4.50;99.90
34542;DHT22;20784;51.332;12.410;2023-03-11T16:22:49;4.50;99.90
34542;DHT22;20784;51.332;12.410;2023-03-11T16:25:43;4.40;99.90
34542;DHT22;20784;51.332;12.410;2023-03-11T16:28:17;4.20;99.90
34542;DHT22;20784;51.332;12.410;2023-03-11T16:30:49;4.20;99.90
34542;DHT22;20784;51.332;12.410;2023-03-11T16:33:15;4.20;99.90
34542;DHT22;20784;51.332;12.410;2023-03-11T16:35:45;4.30;99.90
34542;DHT22;20784;51.332;12.410;2023-03-11T16:38:14;4.30;99.90
34542;DHT22;20784;51.332;12.410;2023-03-11T16:40:44;4.30;99.90
34542;DHT22;20784;51.332;12.410;2023-03-11T16:43:11;4.30;99.90
34542;DHT22;20784;51.332;12.410;2023-03-11T16:45:38;4.20;99.90
34542;DHT22;20784;51.332;12.410;2023-03-11T16:48:09;4.20;99.90
34542;DHT22;20784;51.332;12.410;2023-03-11T16:50:38;4.20;99.90
34542;DHT22;20784;51.332;12.410;2023-03-11T16:53:06;4.40;99.90
34542;DHT22;20784;51.332;12.410;2023-03-11T16:55:44;4.40;99.90
34542;DHT22;20784;51.332;12.410;2023-03-11T16:58:10;4.30;99.90
34542;DHT22;20784;51.332;12.410;2023-03-11T17:00:36;4.30;99.90
34542;DHT22;20784;51.332;12.410;2023-03-11T17:03:02;4.30;99.90
34542;DHT22;20784;51.332;12.410;2023-03-11T17:05:34;4.20;99.90
34542;DHT22;20784;51.332;12.410;2023-03-11T17:08:29;4.10;99.90
34542;DHT22;20784;51.332;12.410;2023-03-11T17:11:23;4.00;99.90
34542;DHT22;20784;51.332;12.410;2023-03-11T17:13:54;3.90;99.90
34542;DHT22;20784;51.332;12.410;2023-03-11T17:16:20;3.90;99.90
34542;DHT22;20784;51.332;12.410;2023-03-11T17:18:48;3.80;99.90
34542;DHT22;20784;51.332;12.410;2023-03-11T17:21:15;3.80;99.90
34542;DHT22;20784;51.332;12.410;2023-03-11T17:23:41;3.70;99.90
34542;DHT22;20784;51.332;12.410;2023-03-11T17:26:09;3.70;99.90
34542;DHT22;20784;51.332;12.410;2023-03-11T17:28:35;3.60;99.90
34542;DHT22;20784;51.332;12.410;2023-03-11T17:31:01;3.50;99.90
34542;DHT22;20784;51.332;12.410;2023-03-11T17:33:27;3.50;99.90
34542;DHT22;20784;51.332;12.410;2023-03-11T17:36:00;3.50;99.90
34542;DHT22;20784;51.332;12.410;2023-03-11T17:38:26;3.50;99.90